ORMM/BSR METAR and TAF weather

Enter ICAO airport designator
Station Type Date Time Source
ORMM METAR 2019/10/23 07:00 UTC NOAA

ORMM 230700Z 04014KT CAVOK 31/18 Q1012 NOSIG


Station Type Date Time Source
ORMM Decoded METAR 2019/10/23 07:00 UTC NOAA

Station name not available
Oct 23, 2019 - 03:00 AM EDT / 2019.10.23 0700 UTC
Wind: from the NE (040 degrees) at 16 MPH (14 KT):0
Visibility: greater than 7 mile(s):0
Temperature: 87 F (31 C)
Dew Point: 64 F (18 C)
Relative Humidity: 45%
Pressure (altimeter): 29.88 in. Hg (1012 hPa)
ob: ORMM 230700Z 04014KT CAVOK 31/18 Q1012 NOSIG
cycle: 7

Station Type Date Time Source
ORMM TAF 2019/10/23 06:24 UTC NOAA

TAF ORMM 230400Z 2306/2406 02010KT CAVOK
TEMPO 2309/2317 05014G24KT 7000 FEW040

Example: see airport list